createdAt,value
2023-04-02T00:01:40.794Z,26.80
2023-04-02T00:04:29.905Z,27.65
2023-04-02T00:07:11.735Z,26.17
2023-04-02T00:09:43.049Z,26.77
2023-04-02T00:12:19.392Z,26.12
2023-04-02T00:14:56.009Z,25.85
2023-04-02T00:20:09.299Z,26.30
2023-04-02T00:22:42.952Z,26.97
2023-04-02T00:25:16.302Z,26.80
2023-04-02T00:27:47.790Z,27.42
2023-04-02T00:30:19.974Z,26.55
2023-04-02T00:32:51.477Z,29.60
2023-04-02T00:35:30.976Z,28.52
2023-04-02T00:38:02.462Z,26.97
2023-04-02T00:40:34.921Z,27.40
2023-04-02T00:43:07.381Z,27.93
2023-04-02T00:45:40.882Z,28.60
2023-04-02T00:48:26.398Z,28.25
2023-04-02T00:50:58.921Z,27.10
2023-04-02T00:53:32.124Z,27.58
2023-04-02T00:56:05.635Z,27.20
2023-04-02T00:58:39.138Z,28.25
2023-04-02T01:01:18.939Z,27.58
2023-04-02T01:04:04.425Z,28.30
2023-04-02T01:06:42.188Z,28.07
2023-04-02T01:09:21.609Z,27.42
2023-04-02T01:12:16.035Z,27.58
2023-04-02T01:15:02.176Z,28.45
2023-04-02T01:17:51.015Z,26.82
2023-04-02T01:20:52.073Z,26.57
2023-04-02T01:23:35.808Z,26.23
2023-04-02T01:26:24.785Z,27.98
2023-04-02T01:29:04.387Z,26.60
2023-04-02T01:31:37.232Z,27.55
2023-04-02T01:34:13.675Z,27.27
2023-04-02T01:36:47.107Z,29.63
2023-04-02T01:39:32.573Z,29.52
2023-04-02T01:42:24.440Z,27.60
2023-04-02T01:44:57.548Z,26.40
2023-04-02T01:47:30.936Z,29.95
2023-04-02T01:50:04.888Z,26.65
2023-04-02T01:52:44.643Z,26.27
2023-04-02T01:55:17.613Z,27.50
2023-04-02T01:57:51.132Z,25.75
2023-04-02T02:00:23.617Z,26.97
2023-04-02T02:02:55.201Z,27.07
2023-04-02T02:05:26.714Z,27.10
2023-04-02T02:07:59.419Z,25.02
2023-04-02T02:10:38.988Z,25.90
2023-04-02T02:13:11.167Z,26.35
2023-04-02T02:15:43.068Z,26.27
2023-04-02T02:18:15.464Z,26.25
2023-04-02T02:20:46.894Z,26.75
2023-04-02T02:23:18.788Z,24.37
2023-04-02T02:25:50.205Z,22.93
2023-04-02T02:28:29.192Z,25.50
2023-04-02T02:31:11.330Z,25.75
2023-04-02T02:33:48.256Z,21.75
2023-04-02T02:36:43.128Z,23.42
2023-04-02T02:39:29.281Z,24.92
2023-04-02T02:42:22.270Z,23.92
2023-04-02T02:44:55.025Z,21.52
2023-04-02T02:47:31.016Z,20.12
2023-04-02T02:50:04.668Z,19.87
2023-04-02T02:52:40.356Z,19.65
2023-04-02T02:55:16.968Z,19.23
2023-04-02T02:57:53.048Z,20.80
2023-04-02T03:00:25.793Z,20.40
2023-04-02T03:02:59.261Z,19.37
2023-04-02T03:05:32.605Z,20.12
2023-04-02T03:08:05.158Z,22.80
2023-04-02T03:10:44.802Z,21.17
2023-04-02T03:13:36.697Z,20.32
2023-04-02T03:16:16.353Z,17.70
2023-04-02T03:18:49.860Z,17.65
2023-04-02T03:21:23.466Z,18.82
2023-04-02T03:24:06.136Z,18.90
2023-04-02T03:26:48.816Z,17.90
2023-04-02T03:29:34.529Z,17.37
2023-04-02T03:32:16.611Z,18.37
2023-04-02T03:34:55.443Z,17.07
2023-04-02T03:37:44.126Z,18.60
2023-04-02T03:40:32.784Z,18.42
2023-04-02T03:43:09.641Z,17.37
2023-04-02T03:45:45.824Z,17.70
2023-04-02T03:48:28.457Z,18.15
2023-04-02T03:51:05.321Z,20.50
2023-04-02T03:53:36.975Z,19.02
2023-04-02T03:56:08.989Z,18.73
2023-04-02T03:58:45.386Z,19.02
2023-04-02T04:01:30.627Z,19.95
2023-04-02T04:04:09.933Z,19.10
2023-04-02T04:06:43.950Z,19.95
2023-04-02T04:09:26.643Z,20.92
2023-04-02T04:12:14.959Z,19.80
2023-04-02T04:14:48.830Z,18.35
2023-04-02T04:17:29.818Z,18.15
2023-04-02T04:20:24.558Z,18.50
2023-04-02T04:22:56.769Z,18.10
2023-04-02T04:25:34.377Z,17.77
2023-04-02T04:28:11.722Z,15.72
2023-04-02T04:31:03.259Z,14.45
2023-04-02T04:33:42.666Z,13.88
2023-04-02T04:36:22.922Z,14.65
2023-04-02T04:38:56.024Z,13.60
2023-04-02T04:41:30.498Z,14.65
2023-04-02T04:44:19.003Z,15.78
2023-04-02T04:47:07.505Z,15.23
2023-04-02T04:49:47.014Z,15.72
2023-04-02T04:52:23.492Z,14.13
2023-04-02T04:54:55.098Z,14.03
2023-04-02T04:57:37.528Z,13.32
2023-04-02T05:00:14.572Z,12.70
2023-04-02T05:02:51.130Z,13.03
2023-04-02T05:05:24.878Z,13.22
2023-04-02T05:08:01.544Z,12.70
2023-04-02T05:10:47.014Z,12.70
2023-04-02T05:13:29.486Z,13.20
2023-04-02T05:16:21.701Z,13.35
2023-04-02T05:19:20.724Z,13.50
2023-04-02T05:21:54.407Z,12.33
2023-04-02T05:24:34.211Z,13.05
2023-04-02T05:27:10.234Z,12.60
2023-04-02T05:29:43.981Z,13.05
2023-04-02T05:32:17.514Z,12.40
2023-04-02T05:34:51.091Z,12.80
2023-04-02T05:37:25.278Z,13.05
2023-04-02T05:40:02.353Z,12.07
2023-04-02T05:42:35.749Z,12.58
2023-04-02T05:45:24.450Z,12.20
2023-04-02T05:47:59.178Z,12.63
2023-04-02T05:50:32.870Z,11.63
2023-04-02T05:53:14.935Z,11.08
2023-04-02T05:56:00.725Z,11.65
2023-04-02T05:58:37.304Z,11.48
2023-04-02T06:01:19.883Z,10.98
2023-04-02T06:04:02.336Z,11.40
2023-04-02T06:06:44.688Z,10.95
2023-04-02T06:09:18.439Z,11.60
2023-04-02T06:11:52.260Z,11.25
2023-04-02T06:14:23.497Z,11.55
2023-04-02T06:16:55.689Z,11.48
2023-04-02T06:19:29.118Z,11.73
2023-04-02T06:22:05.330Z,11.12
2023-04-02T06:27:09.338Z,11.83
2023-04-02T06:29:42.672Z,12.40
2023-04-02T06:32:15.476Z,10.93
2023-04-02T06:34:47.128Z,11.83
2023-04-02T06:37:38.770Z,11.18
2023-04-02T06:40:30.963Z,11.55
2023-04-02T06:43:04.401Z,11.15
2023-04-02T06:45:39.334Z,11.68
2023-04-02T06:48:13.300Z,12.03
2023-04-02T06:50:59.038Z,12.78
2023-04-02T06:53:35.114Z,12.78
2023-04-02T06:56:11.928Z,11.93
2023-04-02T07:01:46.337Z,12.37
2023-04-02T07:04:18.093Z,11.60
2023-04-02T07:06:49.099Z,12.85
2023-04-02T07:09:20.735Z,15.25
2023-04-02T07:11:52.218Z,12.95
2023-04-02T07:14:23.304Z,12.25
2023-04-02T07:16:54.788Z,11.90
2023-04-02T07:19:26.242Z,13.28
2023-04-02T07:21:57.212Z,12.43
2023-04-02T07:24:28.526Z,12.23
2023-04-02T07:26:59.660Z,12.93
2023-04-02T07:29:30.709Z,11.90
2023-04-02T07:32:01.863Z,11.68
2023-04-02T07:34:33.104Z,11.53
2023-04-02T07:37:08.256Z,12.00
2023-04-02T07:39:40.250Z,12.25
2023-04-02T07:42:11.838Z,11.90
2023-04-02T07:44:43.070Z,12.13
2023-04-02T07:47:14.438Z,12.03
2023-04-02T07:49:45.781Z,14.15
2023-04-02T07:52:17.055Z,12.33
2023-04-02T07:54:48.427Z,13.83
2023-04-02T07:57:19.736Z,12.30
2023-04-02T07:59:51.831Z,12.90
2023-04-02T08:02:23.882Z,12.53
2023-04-02T08:04:55.037Z,12.00
2023-04-02T08:07:25.914Z,12.58
2023-04-02T08:09:57.182Z,12.15
2023-04-02T08:12:28.121Z,13.13
2023-04-02T08:14:59.612Z,12.75
2023-04-02T08:17:33.956Z,12.00
2023-04-02T08:20:06.625Z,12.50
2023-04-02T08:22:39.362Z,12.40
2023-04-02T08:25:12.187Z,13.75
2023-04-02T08:27:43.564Z,12.73
2023-04-02T08:30:17.119Z,11.63
2023-04-02T08:32:50.105Z,12.10
2023-04-02T08:35:21.358Z,12.07
2023-04-02T08:37:52.674Z,11.55
2023-04-02T08:40:29.251Z,12.55
2023-04-02T08:43:24.159Z,12.65
2023-04-02T08:46:00.462Z,12.83
2023-04-02T08:48:34.228Z,13.75
2023-04-02T08:51:07.472Z,12.88
2023-04-02T08:53:41.043Z,12.07
2023-04-02T08:56:21.832Z,12.13
2023-04-02T08:58:58.991Z,12.63
2023-04-02T09:01:44.694Z,12.07
2023-04-02T09:04:18.269Z,12.43
2023-04-02T09:06:50.084Z,11.55
2023-04-02T09:09:21.850Z,12.03
2023-04-02T09:12:00.094Z,12.47
2023-04-02T09:14:48.985Z,12.35
2023-04-02T09:17:25.550Z,12.73
2023-04-02T09:20:01.732Z,12.37
2023-04-02T09:25:06.170Z,12.63
2023-04-02T09:27:38.987Z,12.70
2023-04-02T09:30:45.905Z,12.55
2023-04-02T09:33:17.130Z,12.70
2023-04-02T09:35:59.250Z,13.68
2023-04-02T09:38:33.180Z,13.00
2023-04-02T09:41:12.788Z,12.70
2023-04-02T09:43:43.953Z,12.63
2023-04-02T09:46:26.922Z,12.68
2023-04-02T09:49:01.913Z,12.58
2023-04-02T09:51:35.943Z,13.25
2023-04-02T09:54:09.803Z,13.72
2023-04-02T09:56:42.399Z,13.00
2023-04-02T09:59:19.154Z,13.50
2023-04-02T10:02:04.884Z,13.62
2023-04-02T10:04:51.089Z,12.53
2023-04-02T10:07:44.018Z,12.40
2023-04-02T10:10:25.094Z,12.40
2023-04-02T10:13:04.400Z,12.07
2023-04-02T10:15:47.214Z,12.07
2023-04-02T10:18:45.283Z,12.80
2023-04-02T10:21:18.817Z,13.53
2023-04-02T10:23:50.368Z,12.60
2023-04-02T10:26:32.742Z,13.03
2023-04-02T10:29:08.931Z,14.47
2023-04-02T10:34:37.545Z,12.70
2023-04-02T10:37:30.679Z,12.70
2023-04-02T10:40:13.097Z,11.78
2023-04-02T10:42:58.795Z,12.13
2023-04-02T10:45:53.207Z,12.65
2023-04-02T10:48:26.728Z,12.90
2023-04-02T10:51:00.113Z,12.75
2023-04-02T10:53:33.436Z,12.85
2023-04-02T10:56:08.158Z,13.95
2023-04-02T10:58:41.837Z,12.25
2023-04-02T11:01:21.343Z,13.08
2023-04-02T11:03:58.112Z,12.95
2023-04-02T11:06:31.203Z,12.93
2023-04-02T11:09:06.268Z,12.85
2023-04-02T11:11:47.739Z,13.22
2023-04-02T11:14:21.120Z,13.20
2023-04-02T11:16:57.490Z,13.13
2023-04-02T11:19:33.849Z,13.28
2023-04-02T11:22:22.577Z,13.25
2023-04-02T11:24:59.170Z,14.30
2023-04-02T11:27:37.765Z,14.03
2023-04-02T11:33:36.660Z,14.40
2023-04-02T11:36:03.379Z,15.50
2023-04-02T11:38:52.520Z,15.53
2023-04-02T11:41:32.365Z,16.15
2023-04-02T11:44:04.374Z,15.65
2023-04-02T11:46:42.653Z,16.95
2023-04-02T11:49:37.572Z,17.42
2023-04-02T11:52:12.272Z,18.73
2023-04-02T11:54:42.953Z,17.30
2023-04-02T11:57:22.274Z,15.83
2023-04-02T12:00:06.043Z,14.65
2023-04-02T12:02:39.692Z,13.50
2023-04-02T12:05:25.388Z,14.07
2023-04-02T12:08:18.600Z,13.18
2023-04-02T12:11:03.697Z,11.43
2023-04-02T12:13:46.345Z,12.33
2023-04-02T12:16:27.849Z,11.65
2023-04-02T12:18:59.616Z,12.80
2023-04-02T12:21:32.566Z,12.13
2023-04-02T12:24:05.066Z,13.18
2023-04-02T12:26:47.860Z,13.30
2023-04-02T12:29:21.454Z,13.48
2023-04-02T12:31:52.859Z,13.83
2023-04-02T12:34:25.760Z,12.45
2023-04-02T12:37:03.780Z,12.53
2023-04-02T12:39:36.070Z,13.22
2023-04-02T12:42:07.302Z,13.10
2023-04-02T12:44:38.576Z,12.53
2023-04-02T12:47:19.210Z,12.85
2023-04-02T12:49:50.949Z,12.53
2023-04-02T12:52:24.582Z,13.03
2023-04-02T12:55:04.408Z,12.45
2023-04-02T12:57:40.415Z,11.63
2023-04-02T13:00:28.623Z,12.60
2023-04-02T13:03:14.112Z,12.65
2023-04-02T13:05:47.701Z,12.40
2023-04-02T13:08:27.493Z,13.05
2023-04-02T13:11:06.500Z,12.75
2023-04-02T13:13:40.337Z,14.40
2023-04-02T13:16:32.117Z,14.23
2023-04-02T13:19:24.346Z,13.88
2023-04-02T13:21:56.278Z,16.30
2023-04-02T13:24:29.634Z,15.72
2023-04-02T13:27:02.730Z,17.35
2023-04-02T13:29:35.838Z,14.63
2023-04-02T13:32:09.585Z,14.83
2023-04-02T13:34:40.520Z,14.10
2023-04-02T13:37:13.646Z,14.18
2023-04-02T13:39:44.391Z,16.45
2023-04-02T13:42:15.305Z,16.10
2023-04-02T13:44:47.756Z,14.95
2023-04-02T13:47:18.605Z,16.85
2023-04-02T13:49:49.567Z,14.30
2023-04-02T13:52:20.432Z,13.53
2023-04-02T13:54:54.287Z,13.13
2023-04-02T13:57:25.238Z,12.68
2023-04-02T13:59:56.622Z,13.13
2023-04-02T14:02:28.626Z,13.58
2023-04-02T14:05:07.902Z,13.00
2023-04-02T14:07:56.379Z,12.93
2023-04-02T14:10:48.001Z,12.73
2023-04-02T14:13:30.285Z,13.15
2023-04-02T14:16:29.339Z,13.90
2023-04-02T14:19:02.999Z,13.83
2023-04-02T14:21:39.042Z,13.20
2023-04-02T14:24:30.863Z,13.72
2023-04-02T14:27:22.630Z,13.62
2023-04-02T14:30:05.035Z,13.88
2023-04-02T14:32:47.709Z,14.65
2023-04-02T14:35:27.560Z,14.30
2023-04-02T14:38:09.772Z,15.30
2023-04-02T14:40:52.946Z,14.73
2023-04-02T14:43:26.678Z,15.75
2023-04-02T14:46:06.380Z,15.60
2023-04-02T14:48:56.716Z,16.20
2023-04-02T14:51:45.577Z,15.72
2023-04-02T14:54:21.863Z,14.80
2023-04-02T14:57:11.426Z,15.05
2023-04-02T15:00:14.639Z,14.33
2023-04-02T15:02:51.045Z,15.88
2023-04-02T15:08:04.522Z,15.80
2023-04-02T15:10:38.218Z,15.50
2023-04-02T15:13:11.796Z,14.95
2023-04-02T15:15:57.745Z,15.60
2023-04-02T15:18:29.158Z,15.98
2023-04-02T15:21:28.698Z,14.98
2023-04-02T15:24:26.598Z,15.28
2023-04-02T15:27:11.945Z,15.60
2023-04-02T15:29:43.793Z,15.43
2023-04-02T15:32:23.183Z,15.20
2023-04-02T15:34:59.510Z,15.93
2023-04-02T15:37:33.326Z,15.35
2023-04-02T15:40:24.734Z,16.02
2023-04-02T15:43:00.978Z,15.70
2023-04-02T15:45:46.292Z,16.00
2023-04-02T15:48:25.672Z,16.77
2023-04-02T15:51:08.183Z,17.10
2023-04-02T15:53:59.450Z,17.73
2023-04-02T15:56:49.134Z,18.62
2023-04-02T15:59:44.005Z,17.80
2023-04-02T16:02:43.234Z,17.77
2023-04-02T16:08:44.975Z,17.75
2023-04-02T16:11:20.588Z,17.70
2023-04-02T16:14:04.215Z,16.97
2023-04-02T16:16:38.078Z,16.82
2023-04-02T16:19:31.376Z,17.45
2023-04-02T16:22:05.062Z,17.42
2023-04-02T16:24:51.962Z,17.75
2023-04-02T16:27:31.331Z,17.57
2023-04-02T16:30:05.035Z,16.97
2023-04-02T16:32:57.021Z,17.27
2023-04-02T16:35:43.276Z,17.27
2023-04-02T16:38:27.805Z,17.12
2023-04-02T16:41:09.111Z,17.92
2023-04-02T16:43:51.483Z,17.65
2023-04-02T16:46:58.161Z,17.73
2023-04-02T16:49:40.616Z,18.70
2023-04-02T16:52:35.017Z,19.23
2023-04-02T16:55:33.559Z,18.12
2023-04-02T16:58:07.116Z,19.07
2023-04-02T17:00:53.967Z,18.27
2023-04-02T17:03:52.053Z,19.32
2023-04-02T17:06:34.646Z,18.92
2023-04-02T17:09:24.533Z,18.40
2023-04-02T17:12:03.829Z,19.40
2023-04-02T17:14:43.433Z,19.37
2023-04-02T17:17:21.086Z,19.27
2023-04-02T17:19:53.759Z,20.05
2023-04-02T17:22:26.127Z,19.77
2023-04-02T17:25:05.702Z,21.05
2023-04-02T17:27:42.225Z,20.45
2023-04-02T17:33:01.206Z,19.70
2023-04-02T17:35:37.401Z,20.05
2023-04-02T17:38:17.356Z,19.73
2023-04-02T17:40:55.269Z,19.10
2023-04-02T17:43:34.726Z,18.55
2023-04-02T17:46:18.218Z,18.48
2023-04-02T17:48:53.614Z,18.85
2023-04-02T17:51:35.444Z,19.27
2023-04-02T17:54:28.435Z,19.12
2023-04-02T17:57:22.526Z,18.85
2023-04-02T17:59:59.407Z,17.67
2023-04-02T18:02:49.497Z,17.48
2023-04-02T18:05:27.208Z,17.90
2023-04-02T18:08:09.544Z,17.98
2023-04-02T18:10:49.864Z,18.73
2023-04-02T18:13:31.103Z,18.32
2023-04-02T18:16:19.885Z,19.17
2023-04-02T18:19:11.869Z,18.37
2023-04-02T18:21:45.428Z,18.70
2023-04-02T18:24:24.804Z,18.80
2023-04-02T18:27:11.068Z,18.92
2023-04-02T18:32:55.729Z,18.17
2023-04-02T18:35:38.430Z,17.92
2023-04-02T18:38:27.007Z,18.55
2023-04-02T18:41:35.506Z,18.30
2023-04-02T18:44:30.746Z,18.80
2023-04-02T18:47:27.029Z,19.50
2023-04-02T18:50:03.519Z,19.40
2023-04-02T18:52:37.458Z,18.73
2023-04-02T18:55:11.048Z,18.70
2023-04-02T18:57:45.127Z,18.55
2023-04-02T19:00:27.833Z,19.23
2023-04-02T19:03:20.904Z,17.87
2023-04-02T19:06:13.479Z,19.10
2023-04-02T19:08:50.216Z,19.67
2023-04-02T19:11:25.342Z,19.60
2023-04-02T19:14:11.711Z,17.62
2023-04-02T19:17:02.395Z,18.52
2023-04-02T19:19:40.334Z,18.52
2023-04-02T19:22:42.568Z,18.80
2023-04-02T19:25:19.058Z,18.33
2023-04-02T19:28:17.220Z,18.55
2023-04-02T19:31:09.662Z,19.60
2023-04-02T19:34:18.796Z,19.37
2023-04-02T19:36:58.237Z,19.40
2023-04-02T19:39:53.491Z,20.10
2023-04-02T19:42:30.411Z,19.93
2023-04-02T19:45:01.970Z,20.40
2023-04-02T19:47:33.655Z,19.95
2023-04-02T19:50:06.371Z,20.50
2023-04-02T19:52:37.704Z,21.25
2023-04-02T19:55:09.648Z,21.85
2023-04-02T19:57:43.606Z,21.42
2023-04-02T20:00:21.606Z,20.82
2023-04-02T20:02:53.098Z,21.33
2023-04-02T20:05:25.077Z,20.72
2023-04-02T20:07:56.289Z,20.75
2023-04-02T20:10:27.483Z,21.05
2023-04-02T20:12:59.957Z,21.60
2023-04-02T20:15:31.569Z,20.52
2023-04-02T20:18:07.329Z,20.35
2023-04-02T20:20:38.928Z,21.37
2023-04-02T20:23:16.502Z,20.85
2023-04-02T20:25:56.051Z,21.90
2023-04-02T20:28:28.812Z,21.93
2023-04-02T20:31:17.505Z,20.60
2023-04-02T20:33:50.065Z,21.73
2023-04-02T20:36:21.398Z,21.65
2023-04-02T20:38:52.733Z,21.85
2023-04-02T20:41:26.305Z,21.30
2023-04-02T20:43:57.864Z,21.60
2023-04-02T20:46:29.233Z,21.30
2023-04-02T20:49:03.484Z,22.70
2023-04-02T20:51:35.714Z,21.23
2023-04-02T20:54:07.082Z,20.90
2023-04-02T20:56:39.348Z,21.10
2023-04-02T20:59:10.643Z,21.17
2023-04-02T21:01:42.196Z,21.23
2023-04-02T21:04:14.199Z,20.35
2023-04-02T21:06:45.986Z,21.12
2023-04-02T21:09:19.677Z,21.12
2023-04-02T21:11:51.138Z,20.97
2023-04-02T21:14:22.661Z,22.17
2023-04-02T21:16:53.920Z,22.02
2023-04-02T21:19:25.209Z,21.37
2023-04-02T21:21:57.844Z,21.10
2023-04-02T21:24:29.062Z,21.35
2023-04-02T21:27:00.365Z,22.07
2023-04-02T21:29:31.593Z,21.77
2023-04-02T21:32:08.431Z,21.77
2023-04-02T21:34:35.655Z,20.77
2023-04-02T21:37:07.157Z,21.85
2023-04-02T21:39:38.507Z,22.30
2023-04-02T21:42:09.721Z,22.45
2023-04-02T21:44:40.881Z,22.07
2023-04-02T21:47:12.439Z,21.93
2023-04-02T21:49:44.000Z,22.17
2023-04-02T21:52:15.861Z,22.65
2023-04-02T21:54:47.530Z,22.73
2023-04-02T21:57:19.226Z,22.95
2023-04-02T21:59:50.640Z,23.22
2023-04-02T22:02:21.989Z,23.25
2023-04-02T22:04:53.217Z,23.12
2023-04-02T22:07:24.383Z,22.75
2023-04-02T22:09:55.606Z,24.05
2023-04-02T22:12:26.738Z,22.40
2023-04-02T22:14:58.579Z,22.40
2023-04-02T22:17:29.863Z,23.25
2023-04-02T22:20:01.227Z,23.05
2023-04-02T22:22:32.458Z,24.43
2023-04-02T22:25:06.234Z,24.80
2023-04-02T22:27:37.541Z,24.63
2023-04-02T22:30:10.270Z,23.42
2023-04-02T22:32:41.967Z,24.92
2023-04-02T22:35:13.871Z,24.07
2023-04-02T22:37:45.375Z,25.68
2023-04-02T22:40:16.830Z,25.00
2023-04-02T22:42:49.041Z,26.10
2023-04-02T22:45:22.018Z,26.85
2023-04-02T22:47:53.513Z,27.13
2023-04-02T22:50:24.866Z,27.85
2023-04-02T22:52:56.179Z,30.35
2023-04-02T22:55:28.130Z,28.27
2023-04-02T22:57:59.253Z,36.63
2023-04-02T23:00:30.478Z,40.50
2023-04-02T23:03:01.803Z,44.65
2023-04-02T23:05:33.179Z,45.33
2023-04-02T23:08:04.522Z,38.78
2023-04-02T23:10:36.180Z,32.90
2023-04-02T23:13:07.754Z,33.10
2023-04-02T23:15:39.073Z,31.97
2023-04-02T23:18:10.854Z,32.20
2023-04-02T23:20:42.783Z,29.48
2023-04-02T23:23:13.915Z,29.00
2023-04-02T23:25:45.055Z,28.87
2023-04-02T23:28:16.868Z,29.05
2023-04-02T23:30:48.006Z,30.82
2023-04-02T23:33:19.155Z,29.65
2023-04-02T23:35:50.342Z,40.58
2023-04-02T23:38:21.545Z,41.77
2023-04-02T23:40:52.680Z,39.10
2023-04-02T23:43:23.845Z,39.30
2023-04-02T23:45:55.053Z,36.75
2023-04-02T23:48:26.383Z,36.05
2023-04-02T23:50:57.552Z,36.20
2023-04-02T23:53:28.898Z,36.53
2023-04-02T23:56:00.354Z,34.25
2023-04-02T23:58:31.594Z,36.50
